This is the latest recevied weather packets stored in our database for station/object EA1FWM-12. If no packets are shown the sender has not sent any weather packets the latest 1 day(s).
| Time | Temp. | Humidity | Pressure | Rain* | Wind** | Luminosity | Snow |
|---|---|---|---|---|---|---|---|
| 1777837642 | 9.44° C | 84% | 1017 hPa | - | - | - | - |
| 1777836742 | 9.44° C | 83% | 1016.9 hPa | - | - | - | - |
| 1777835842 | 10° C | 83% | 1016.7 hPa | - | - | - | - |
| 1777834943 | 10° C | 83% | 1016.6 hPa | - | - | - | - |
| 1777834043 | 12.78° C | 82% | 1016.5 hPa | - | - | - | - |
| 1777832512 | 11.11° C | 80% | 1016.6 hPa | - | - | - | - |
| 1777831612 | 11.67° C | 80% | 1016.6 hPa | - | - | - | - |
| 1777830712 | 11.67° C | 81% | 1016.7 hPa | - | - | - | - |
| 1777829812 | 12.22° C | 78% | 1016.7 hPa | - | - | - | - |
| 1777828013 | 15.56° C | 76% | 1016.4 hPa | - | - | - | - |
| 1777827113 | 16.11° C | 78% | 1016.2 hPa | - | - | - | - |
| 1777825365 | 14.44° C | 76% | 1016.2 hPa | - | - | - | - |
| 1777825313 | 14.44° C | 76% | 1016.2 hPa | - | - | - | - |
| 1777824414 | 15.56° C | 76% | 1016.2 hPa | - | - | - | - |
| 1777823515 | 15.56° C | 78% | 1016.2 hPa | - | - | - | - |
| 1777822615 | 15.56° C | 80% | 1016.3 hPa | - | - | - | - |
| 1777821715 | 15° C | 80% | 1016.4 hPa | - | - | - | - |
| 1777820815 | 15° C | 79% | 1016.6 hPa | - | - | - | - |
| 1777819915 | 14.44° C | 82% | 1016.6 hPa | - | - | - | - |
| 1777819015 | 12.22° C | 83% | 1016.7 hPa | - | - | - | - |
| 1777817214 | 13.89° C | 80% | 1016.7 hPa | - | - | - | - |
| 1777816315 | 15.56° C | 78% | 1016.6 hPa | - | - | - | - |
| 1777815415 | 16.67° C | 80% | 1016.4 hPa | - | - | - | - |
| 1777814515 | 15° C | 84% | 1016.4 hPa | - | - | - | - |
| 1777813615 | 13.33° C | 83% | 1016.7 hPa | - | - | - | - |
* Rain since midnight (hover to see other rain measurements)
** Current wind speed in m/s (hover to see current wind gust speed)